Inwood, New York
Current Conditions -  °F | °C
As of 4:51 PM on Sunday 23 Nov 2014 (Local Time) from KJFK Reporting Station
Broken Clouds Broken Clouds  
Wind Chill: 50°   Ceiling: 27000
Heat Index: 50°   Visibility: 10mi
Dew Point: 38°   Wind: 6mph
Humidity: 63%   Direction: 180°S
Pressure: 30.14"   Gusts: NA
Location:  40.62°N, 73.75°W
Report Text: KJFK 232151Z 18005KT 10SM FEW110 SCT190 BKN270 10/03 A3014 RMK AO2 SLP207 T01000033 $
Loading
Personal Weather Stations






























Interactive Weather Map New forecast layout! Learn more

10-Day Weather Forecast

Advertisements
Track Severe Weather on mobile